sensor_id;sensor_type;location;lat;lon;timestamp;temperature;humidity
78463;SHT31;67756;51.982;5.648;2024-01-16T00:00:13;3.6;70.6
78463;SHT31;67756;51.982;5.648;2024-01-16T00:02:42;3.6;69.9
78463;SHT31;67756;51.982;5.648;2024-01-16T00:05:11;3.6;69.8
78463;SHT31;67756;51.982;5.648;2024-01-16T00:07:40;3.6;70.2
78463;SHT31;67756;51.982;5.648;2024-01-16T00:10:09;3.6;70.2
78463;SHT31;67756;51.982;5.648;2024-01-16T00:12:38;3.5;70.1
78463;SHT31;67756;51.982;5.648;2024-01-16T00:15:07;3.5;70.8
78463;SHT31;67756;51.982;5.648;2024-01-16T00:17:36;3.5;70.3
78463;SHT31;67756;51.982;5.648;2024-01-16T00:20:05;3.5;70.5
78463;SHT31;67756;51.982;5.648;2024-01-16T00:22:34;3.5;70.4
78463;SHT31;67756;51.982;5.648;2024-01-16T00:25:03;3.5;70.3
78463;SHT31;67756;51.982;5.648;2024-01-16T00:27:32;3.4;69.6
78463;SHT31;67756;51.982;5.648;2024-01-16T00:30:00;3.4;69.5
78463;SHT31;67756;51.982;5.648;2024-01-16T00:32:29;3.4;69.9
78463;SHT31;67756;51.982;5.648;2024-01-16T00:34:57;3.3;69.9
78463;SHT31;67756;51.982;5.648;2024-01-16T00:37:26;3.3;70.4
78463;SHT31;67756;51.982;5.648;2024-01-16T00:39:56;3.3;70.7
78463;SHT31;67756;51.982;5.648;2024-01-16T00:42:25;3.3;71.1
78463;SHT31;67756;51.982;5.648;2024-01-16T00:44:53;3.4;71.0
78463;SHT31;67756;51.982;5.648;2024-01-16T00:47:22;3.4;70.5
78463;SHT31;67756;51.982;5.648;2024-01-16T00:49:51;3.4;70.0
78463;SHT31;67756;51.982;5.648;2024-01-16T00:52:19;3.4;70.0
78463;SHT31;67756;51.982;5.648;2024-01-16T00:54:48;3.4;70.8
78463;SHT31;67756;51.982;5.648;2024-01-16T00:57:17;3.4;71.2
78463;SHT31;67756;51.982;5.648;2024-01-16T00:59:47;3.4;71.2
78463;SHT31;67756;51.982;5.648;2024-01-16T01:02:16;3.4;70.9
78463;SHT31;67756;51.982;5.648;2024-01-16T01:04:44;3.4;70.8
78463;SHT31;67756;51.982;5.648;2024-01-16T01:07:14;3.4;70.6
78463;SHT31;67756;51.982;5.648;2024-01-16T01:09:43;3.4;70.9
78463;SHT31;67756;51.982;5.648;2024-01-16T01:12:12;3.4;71.0
78463;SHT31;67756;51.982;5.648;2024-01-16T01:14:40;3.4;71.0
78463;SHT31;67756;51.982;5.648;2024-01-16T01:17:09;3.4;70.8
78463;SHT31;67756;51.982;5.648;2024-01-16T01:19:37;3.4;71.9
78463;SHT31;67756;51.982;5.648;2024-01-16T01:22:06;3.4;72.0
78463;SHT31;67756;51.982;5.648;2024-01-16T01:24:34;3.4;72.1
78463;SHT31;67756;51.982;5.648;2024-01-16T01:27:03;3.4;71.8
78463;SHT31;67756;51.982;5.648;2024-01-16T01:29:32;3.4;72.0
78463;SHT31;67756;51.982;5.648;2024-01-16T01:32:01;3.4;72.0
78463;SHT31;67756;51.982;5.648;2024-01-16T01:34:29;3.4;71.7
78463;SHT31;67756;51.982;5.648;2024-01-16T01:36:58;3.5;71.1
78463;SHT31;67756;51.982;5.648;2024-01-16T01:39:28;3.5;70.9
78463;SHT31;67756;51.982;5.648;2024-01-16T01:41:57;3.5;70.4
78463;SHT31;67756;51.982;5.648;2024-01-16T01:44:26;3.5;70.1
78463;SHT31;67756;51.982;5.648;2024-01-16T01:46:56;3.6;70.1
78463;SHT31;67756;51.982;5.648;2024-01-16T01:49:25;3.6;70.3
78463;SHT31;67756;51.982;5.648;2024-01-16T01:51:55;3.5;70.1
78463;SHT31;67756;51.982;5.648;2024-01-16T01:54:25;3.5;70.5
78463;SHT31;67756;51.982;5.648;2024-01-16T01:56:55;3.5;70.7
78463;SHT31;67756;51.982;5.648;2024-01-16T01:59:24;3.4;70.8
78463;SHT31;67756;51.982;5.648;2024-01-16T02:01:54;3.4;71.1
78463;SHT31;67756;51.982;5.648;2024-01-16T02:04:24;3.4;71.7
78463;SHT31;67756;51.982;5.648;2024-01-16T02:06:54;3.4;72.6
78463;SHT31;67756;51.982;5.648;2024-01-16T02:09:24;3.4;72.5
78463;SHT31;67756;51.982;5.648;2024-01-16T02:11:55;3.4;72.5
78463;SHT31;67756;51.982;5.648;2024-01-16T02:14:23;3.5;72.0
78463;SHT31;67756;51.982;5.648;2024-01-16T02:16:52;3.5;72.1
78463;SHT31;67756;51.982;5.648;2024-01-16T02:19:20;3.6;71.4
78463;SHT31;67756;51.982;5.648;2024-01-16T02:21:54;3.6;71.4
78463;SHT31;67756;51.982;5.648;2024-01-16T02:24:25;3.7;71.1
78463;SHT31;67756;51.982;5.648;2024-01-16T02:26:55;3.7;71.1
78463;SHT31;67756;51.982;5.648;2024-01-16T02:29:24;3.7;71.4
78463;SHT31;67756;51.982;5.648;2024-01-16T02:31:52;3.8;70.3
78463;SHT31;67756;51.982;5.648;2024-01-16T02:34:21;3.8;70.5
78463;SHT31;67756;51.982;5.648;2024-01-16T02:36:50;3.8;70.7
78463;SHT31;67756;51.982;5.648;2024-01-16T02:39:19;3.8;71.0
78463;SHT31;67756;51.982;5.648;2024-01-16T02:41:47;3.8;71.1
78463;SHT31;67756;51.982;5.648;2024-01-16T02:44:15;3.8;71.3
78463;SHT31;67756;51.982;5.648;2024-01-16T02:46:44;3.8;71.5
78463;SHT31;67756;51.982;5.648;2024-01-16T02:49:12;3.8;71.6
78463;SHT31;67756;51.982;5.648;2024-01-16T02:51:42;3.8;72.0
78463;SHT31;67756;51.982;5.648;2024-01-16T02:54:10;3.8;72.2
78463;SHT31;67756;51.982;5.648;2024-01-16T02:56:39;3.8;72.4
78463;SHT31;67756;51.982;5.648;2024-01-16T02:59:07;3.8;72.3
78463;SHT31;67756;51.982;5.648;2024-01-16T03:01:36;3.8;72.3
78463;SHT31;67756;51.982;5.648;2024-01-16T03:04:04;3.8;72.1
78463;SHT31;67756;51.982;5.648;2024-01-16T03:06:33;3.8;72.2
78463;SHT31;67756;51.982;5.648;2024-01-16T03:09:01;3.9;72.2
78463;SHT31;67756;51.982;5.648;2024-01-16T03:11:30;3.9;71.8
78463;SHT31;67756;51.982;5.648;2024-01-16T03:13:59;3.9;71.8
78463;SHT31;67756;51.982;5.648;2024-01-16T03:16:28;3.9;71.8
78463;SHT31;67756;51.982;5.648;2024-01-16T03:18:57;3.9;71.3
78463;SHT31;67756;51.982;5.648;2024-01-16T03:21:26;3.9;71.4
78463;SHT31;67756;51.982;5.648;2024-01-16T03:23:54;3.9;71.1
78463;SHT31;67756;51.982;5.648;2024-01-16T03:26:25;3.9;71.4
78463;SHT31;67756;51.982;5.648;2024-01-16T03:28:54;3.9;71.5
78463;SHT31;67756;51.982;5.648;2024-01-16T03:31:22;3.9;71.2
78463;SHT31;67756;51.982;5.648;2024-01-16T03:33:51;3.8;71.5
78463;SHT31;67756;51.982;5.648;2024-01-16T03:36:20;3.8;71.5
78463;SHT31;67756;51.982;5.648;2024-01-16T03:38:49;3.7;72.2
78463;SHT31;67756;51.982;5.648;2024-01-16T03:41:18;3.7;72.4
78463;SHT31;67756;51.982;5.648;2024-01-16T03:43:46;3.6;72.4
78463;SHT31;67756;51.982;5.648;2024-01-16T03:46:15;3.6;72.7
78463;SHT31;67756;51.982;5.648;2024-01-16T03:48:43;3.7;72.7
78463;SHT31;67756;51.982;5.648;2024-01-16T03:51:12;3.7;72.8
78463;SHT31;67756;51.982;5.648;2024-01-16T03:53:42;3.7;72.4
78463;SHT31;67756;51.982;5.648;2024-01-16T03:56:10;3.8;72.3
78463;SHT31;67756;51.982;5.648;2024-01-16T03:58:40;3.9;72.5
78463;SHT31;67756;51.982;5.648;2024-01-16T04:01:09;3.9;72.0
78463;SHT31;67756;51.982;5.648;2024-01-16T04:03:39;4.0;72.1
78463;SHT31;67756;51.982;5.648;2024-01-16T04:06:15;4.0;71.8
78463;SHT31;67756;51.982;5.648;2024-01-16T04:08:45;4.0;71.8
78463;SHT31;67756;51.982;5.648;2024-01-16T04:11:15;4.0;72.3
78463;SHT31;67756;51.982;5.648;2024-01-16T04:13:44;4.1;72.1
78463;SHT31;67756;51.982;5.648;2024-01-16T04:16:13;4.2;71.4
78463;SHT31;67756;51.982;5.648;2024-01-16T04:18:43;4.2;70.1
78463;SHT31;67756;51.982;5.648;2024-01-16T04:21:12;4.2;70.1
78463;SHT31;67756;51.982;5.648;2024-01-16T04:23:41;4.2;69.9
78463;SHT31;67756;51.982;5.648;2024-01-16T04:26:10;4.2;69.8
78463;SHT31;67756;51.982;5.648;2024-01-16T04:28:39;4.2;69.5
78463;SHT31;67756;51.982;5.648;2024-01-16T04:31:09;4.1;69.8
78463;SHT31;67756;51.982;5.648;2024-01-16T04:33:38;4.1;69.7
78463;SHT31;67756;51.982;5.648;2024-01-16T04:36:07;4.0;70.4
78463;SHT31;67756;51.982;5.648;2024-01-16T04:38:36;4.0;70.7
78463;SHT31;67756;51.982;5.648;2024-01-16T04:41:05;4.0;70.4
78463;SHT31;67756;51.982;5.648;2024-01-16T04:43:33;3.9;70.4
78463;SHT31;67756;51.982;5.648;2024-01-16T04:46:02;3.9;70.3
78463;SHT31;67756;51.982;5.648;2024-01-16T04:48:31;3.8;70.5
78463;SHT31;67756;51.982;5.648;2024-01-16T04:50:59;3.7;70.8
78463;SHT31;67756;51.982;5.648;2024-01-16T04:53:28;3.7;71.5
78463;SHT31;67756;51.982;5.648;2024-01-16T04:55:56;3.6;71.9
78463;SHT31;67756;51.982;5.648;2024-01-16T04:58:24;3.6;71.9
78463;SHT31;67756;51.982;5.648;2024-01-16T05:00:53;3.6;72.1
78463;SHT31;67756;51.982;5.648;2024-01-16T05:03:21;3.6;72.3
78463;SHT31;67756;51.982;5.648;2024-01-16T05:05:50;3.6;72.5
78463;SHT31;67756;51.982;5.648;2024-01-16T05:08:19;3.6;72.8
78463;SHT31;67756;51.982;5.648;2024-01-16T05:10:48;3.6;72.7
78463;SHT31;67756;51.982;5.648;2024-01-16T05:13:17;3.6;73.3
78463;SHT31;67756;51.982;5.648;2024-01-16T05:15:47;3.6;73.0
78463;SHT31;67756;51.982;5.648;2024-01-16T05:18:16;3.6;72.7
78463;SHT31;67756;51.982;5.648;2024-01-16T05:20:45;3.6;72.7
78463;SHT31;67756;51.982;5.648;2024-01-16T05:23:13;3.6;72.3
78463;SHT31;67756;51.982;5.648;2024-01-16T05:25:41;3.5;72.6
78463;SHT31;67756;51.982;5.648;2024-01-16T05:28:10;3.5;72.9
78463;SHT31;67756;51.982;5.648;2024-01-16T05:30:39;3.5;73.0
78463;SHT31;67756;51.982;5.648;2024-01-16T05:33:07;3.5;73.0
78463;SHT31;67756;51.982;5.648;2024-01-16T05:35:36;3.5;73.0
78463;SHT31;67756;51.982;5.648;2024-01-16T05:38:05;3.5;73.0
78463;SHT31;67756;51.982;5.648;2024-01-16T05:40:33;3.5;72.7
78463;SHT31;67756;51.982;5.648;2024-01-16T05:43:02;3.5;72.7
78463;SHT31;67756;51.982;5.648;2024-01-16T05:45:31;3.5;73.2
78463;SHT31;67756;51.982;5.648;2024-01-16T05:47:59;3.5;72.9
78463;SHT31;67756;51.982;5.648;2024-01-16T05:50:28;3.5;72.9
78463;SHT31;67756;51.982;5.648;2024-01-16T05:52:57;3.5;73.1
78463;SHT31;67756;51.982;5.648;2024-01-16T05:55:26;3.5;73.5
78463;SHT31;67756;51.982;5.648;2024-01-16T05:57:55;3.5;73.7
78463;SHT31;67756;51.982;5.648;2024-01-16T06:00:25;3.5;73.5
78463;SHT31;67756;51.982;5.648;2024-01-16T06:02:55;3.6;73.3
78463;SHT31;67756;51.982;5.648;2024-01-16T06:05:26;3.6;73.1
78463;SHT31;67756;51.982;5.648;2024-01-16T06:07:56;3.6;73.3
78463;SHT31;67756;51.982;5.648;2024-01-16T06:10:25;3.6;73.1
78463;SHT31;67756;51.982;5.648;2024-01-16T06:12:53;3.7;73.1
78463;SHT31;67756;51.982;5.648;2024-01-16T06:15:22;3.7;72.9
78463;SHT31;67756;51.982;5.648;2024-01-16T06:17:50;3.8;72.8
78463;SHT31;67756;51.982;5.648;2024-01-16T06:20:19;3.8;72.8
78463;SHT31;67756;51.982;5.648;2024-01-16T06:22:50;3.8;72.6
78463;SHT31;67756;51.982;5.648;2024-01-16T06:25:21;3.8;72.6
78463;SHT31;67756;51.982;5.648;2024-01-16T06:27:51;3.8;72.7
78463;SHT31;67756;51.982;5.648;2024-01-16T06:30:20;3.8;72.6
78463;SHT31;67756;51.982;5.648;2024-01-16T06:32:48;3.8;72.7
78463;SHT31;67756;51.982;5.648;2024-01-16T06:35:19;3.8;73.1
78463;SHT31;67756;51.982;5.648;2024-01-16T06:37:47;3.8;72.8
78463;SHT31;67756;51.982;5.648;2024-01-16T06:40:16;3.8;72.7
78463;SHT31;67756;51.982;5.648;2024-01-16T06:42:45;3.8;72.8
78463;SHT31;67756;51.982;5.648;2024-01-16T06:45:15;3.8;73.2
78463;SHT31;67756;51.982;5.648;2024-01-16T06:47:45;3.9;73.0
78463;SHT31;67756;51.982;5.648;2024-01-16T06:50:14;3.9;73.3
78463;SHT31;67756;51.982;5.648;2024-01-16T06:52:43;4.0;73.6
78463;SHT31;67756;51.982;5.648;2024-01-16T06:55:12;4.1;73.3
78463;SHT31;67756;51.982;5.648;2024-01-16T06:57:40;4.2;72.5
78463;SHT31;67756;51.982;5.648;2024-01-16T07:00:09;4.2;71.6
78463;SHT31;67756;51.982;5.648;2024-01-16T07:02:40;4.2;71.1
78463;SHT31;67756;51.982;5.648;2024-01-16T07:05:11;4.2;71.1
78463;SHT31;67756;51.982;5.648;2024-01-16T07:07:40;4.2;71.1
78463;SHT31;67756;51.982;5.648;2024-01-16T07:10:09;4.2;71.1
78463;SHT31;67756;51.982;5.648;2024-01-16T07:12:44;4.2;71.1
78463;SHT31;67756;51.982;5.648;2024-01-16T07:15:13;4.1;71.2
78463;SHT31;67756;51.982;5.648;2024-01-16T07:17:42;4.1;71.5
78463;SHT31;67756;51.982;5.648;2024-01-16T07:20:11;4.0;71.9
78463;SHT31;67756;51.982;5.648;2024-01-16T07:22:40;4.0;71.5
78463;SHT31;67756;51.982;5.648;2024-01-16T07:25:09;4.0;72.2
78463;SHT31;67756;51.982;5.648;2024-01-16T07:27:37;3.9;72.4
78463;SHT31;67756;51.982;5.648;2024-01-16T07:30:07;3.9;72.2
78463;SHT31;67756;51.982;5.648;2024-01-16T07:32:36;3.9;72.2
78463;SHT31;67756;51.982;5.648;2024-01-16T07:35:05;3.9;72.3
78463;SHT31;67756;51.982;5.648;2024-01-16T07:37:34;3.9;71.7
78463;SHT31;67756;51.982;5.648;2024-01-16T07:40:03;3.8;72.0
78463;SHT31;67756;51.982;5.648;2024-01-16T07:42:32;3.8;72.1
78463;SHT31;67756;51.982;5.648;2024-01-16T07:45:03;3.8;72.0
78463;SHT31;67756;51.982;5.648;2024-01-16T07:47:33;3.8;72.3
78463;SHT31;67756;51.982;5.648;2024-01-16T07:50:05;3.7;71.9
78463;SHT31;67756;51.982;5.648;2024-01-16T07:52:33;3.7;72.0
78463;SHT31;67756;51.982;5.648;2024-01-16T07:55:02;3.6;72.1
78463;SHT31;67756;51.982;5.648;2024-01-16T07:57:31;3.6;72.1
78463;SHT31;67756;51.982;5.648;2024-01-16T07:59:59;3.6;72.2
78463;SHT31;67756;51.982;5.648;2024-01-16T08:02:34;3.5;71.9
78463;SHT31;67756;51.982;5.648;2024-01-16T08:05:04;3.5;71.8
78463;SHT31;67756;51.982;5.648;2024-01-16T08:07:32;3.5;72.1
78463;SHT31;67756;51.982;5.648;2024-01-16T08:10:01;3.4;71.8
78463;SHT31;67756;51.982;5.648;2024-01-16T08:12:30;3.4;71.7
78463;SHT31;67756;51.982;5.648;2024-01-16T08:14:58;3.4;72.0
78463;SHT31;67756;51.982;5.648;2024-01-16T08:17:27;3.4;72.1
78463;SHT31;67756;51.982;5.648;2024-01-16T08:19:55;3.4;72.4
78463;SHT31;67756;51.982;5.648;2024-01-16T08:22:24;3.4;71.8
78463;SHT31;67756;51.982;5.648;2024-01-16T08:24:52;3.4;71.7
78463;SHT31;67756;51.982;5.648;2024-01-16T08:27:21;3.4;71.8
78463;SHT31;67756;51.982;5.648;2024-01-16T08:29:49;3.5;72.0
78463;SHT31;67756;51.982;5.648;2024-01-16T08:32:18;3.5;71.6
78463;SHT31;67756;51.982;5.648;2024-01-16T08:34:46;3.5;70.7
78463;SHT31;67756;51.982;5.648;2024-01-16T08:37:15;3.6;70.7
78463;SHT31;67756;51.982;5.648;2024-01-16T08:39:44;3.6;70.3
78463;SHT31;67756;51.982;5.648;2024-01-16T08:42:12;3.6;69.6
78463;SHT31;67756;51.982;5.648;2024-01-16T08:44:40;3.6;70.4
78463;SHT31;67756;51.982;5.648;2024-01-16T08:47:09;3.6;70.4
78463;SHT31;67756;51.982;5.648;2024-01-16T08:49:40;3.6;70.4
78463;SHT31;67756;51.982;5.648;2024-01-16T08:52:09;3.6;70.6
78463;SHT31;67756;51.982;5.648;2024-01-16T08:54:38;3.6;70.0
78463;SHT31;67756;51.982;5.648;2024-01-16T08:57:08;3.7;69.8
78463;SHT31;67756;51.982;5.648;2024-01-16T08:59:39;3.7;69.8
78463;SHT31;67756;51.982;5.648;2024-01-16T09:02:08;3.7;69.8
78463;SHT31;67756;51.982;5.648;2024-01-16T09:04:36;3.7;69.4
78463;SHT31;67756;51.982;5.648;2024-01-16T09:07:07;3.7;69.1
78463;SHT31;67756;51.982;5.648;2024-01-16T09:09:35;3.7;69.7
78463;SHT31;67756;51.982;5.648;2024-01-16T09:12:07;3.7;69.4
78463;SHT31;67756;51.982;5.648;2024-01-16T09:14:36;3.7;69.1
78463;SHT31;67756;51.982;5.648;2024-01-16T09:17:05;3.7;69.3
78463;SHT31;67756;51.982;5.648;2024-01-16T09:19:35;3.7;69.1
78463;SHT31;67756;51.982;5.648;2024-01-16T09:22:04;3.7;69.0
78463;SHT31;67756;51.982;5.648;2024-01-16T09:24:33;3.7;68.6
78463;SHT31;67756;51.982;5.648;2024-01-16T09:27:02;3.7;68.7
78463;SHT31;67756;51.982;5.648;2024-01-16T09:29:33;3.8;69.0
78463;SHT31;67756;51.982;5.648;2024-01-16T09:32:01;3.8;68.6
78463;SHT31;67756;51.982;5.648;2024-01-16T09:34:30;3.9;68.2
78463;SHT31;67756;51.982;5.648;2024-01-16T09:36:59;3.9;68.0
78463;SHT31;67756;51.982;5.648;2024-01-16T09:39:29;3.9;67.3
78463;SHT31;67756;51.982;5.648;2024-01-16T09:42:00;3.9;67.8
78463;SHT31;67756;51.982;5.648;2024-01-16T09:44:29;3.9;67.3
78463;SHT31;67756;51.982;5.648;2024-01-16T09:46:59;3.9;67.4
78463;SHT31;67756;51.982;5.648;2024-01-16T09:49:30;3.9;66.8
78463;SHT31;67756;51.982;5.648;2024-01-16T09:51:58;4.0;67.2
78463;SHT31;67756;51.982;5.648;2024-01-16T09:54:28;4.0;67.0
78463;SHT31;67756;51.982;5.648;2024-01-16T09:56:58;4.0;67.0
78463;SHT31;67756;51.982;5.648;2024-01-16T09:59:29;4.0;66.4
78463;SHT31;67756;51.982;5.648;2024-01-16T10:01:58;4.0;66.7
78463;SHT31;67756;51.982;5.648;2024-01-16T10:04:31;4.0;66.1
78463;SHT31;67756;51.982;5.648;2024-01-16T10:07:02;4.0;66.6
78463;SHT31;67756;51.982;5.648;2024-01-16T10:09:32;4.0;67.2
78463;SHT31;67756;51.982;5.648;2024-01-16T10:12:01;4.0;66.9
78463;SHT31;67756;51.982;5.648;2024-01-16T10:14:32;4.0;66.1
78463;SHT31;67756;51.982;5.648;2024-01-16T10:17:02;4.0;65.7
78463;SHT31;67756;51.982;5.648;2024-01-16T10:19:32;4.0;66.2
78463;SHT31;67756;51.982;5.648;2024-01-16T10:22:05;4.0;66.3
78463;SHT31;67756;51.982;5.648;2024-01-16T10:24:34;4.0;66.0
78463;SHT31;67756;51.982;5.648;2024-01-16T10:27:03;4.0;66.7
78463;SHT31;67756;51.982;5.648;2024-01-16T10:29:32;4.1;66.1
78463;SHT31;67756;51.982;5.648;2024-01-16T10:32:01;4.1;65.3
78463;SHT31;67756;51.982;5.648;2024-01-16T10:34:30;4.1;66.3
78463;SHT31;67756;51.982;5.648;2024-01-16T10:37:00;4.2;67.0
78463;SHT31;67756;51.982;5.648;2024-01-16T10:39:30;4.3;67.1
78463;SHT31;67756;51.982;5.648;2024-01-16T10:41:59;4.5;66.3
78463;SHT31;67756;51.982;5.648;2024-01-16T10:44:28;4.8;65.0
78463;SHT31;67756;51.982;5.648;2024-01-16T10:47:11;5.1;63.9
78463;SHT31;67756;51.982;5.648;2024-01-16T10:49:40;5.3;62.8
78463;SHT31;67756;51.982;5.648;2024-01-16T10:52:10;5.5;61.1
78463;SHT31;67756;51.982;5.648;2024-01-16T10:54:41;5.5;60.5
78463;SHT31;67756;51.982;5.648;2024-01-16T10:57:13;5.6;60.7
78463;SHT31;67756;51.982;5.648;2024-01-16T10:59:50;5.6;60.5
78463;SHT31;67756;51.982;5.648;2024-01-16T11:02:29;5.6;60.4
78463;SHT31;67756;51.982;5.648;2024-01-16T11:05:03;5.6;59.7
78463;SHT31;67756;51.982;5.648;2024-01-16T11:07:35;5.5;60.7
78463;SHT31;67756;51.982;5.648;2024-01-16T11:10:07;5.5;61.5
78463;SHT31;67756;51.982;5.648;2024-01-16T11:12:38;5.6;62.7
78463;SHT31;67756;51.982;5.648;2024-01-16T11:15:11;5.7;62.2
78463;SHT31;67756;51.982;5.648;2024-01-16T11:17:40;6.0;61.5
78463;SHT31;67756;51.982;5.648;2024-01-16T11:20:14;6.2;60.0
78463;SHT31;67756;51.982;5.648;2024-01-16T11:22:45;6.5;60.0
78463;SHT31;67756;51.982;5.648;2024-01-16T11:25:16;6.7;59.5
78463;SHT31;67756;51.982;5.648;2024-01-16T11:27:46;6.9;58.1
78463;SHT31;67756;51.982;5.648;2024-01-16T11:30:30;7.1;59.0
78463;SHT31;67756;51.982;5.648;2024-01-16T11:32:59;7.3;57.0
78463;SHT31;67756;51.982;5.648;2024-01-16T11:35:37;7.5;55.9
78463;SHT31;67756;51.982;5.648;2024-01-16T11:38:13;7.7;55.8
78463;SHT31;67756;51.982;5.648;2024-01-16T11:40:45;7.9;55.5
78463;SHT31;67756;51.982;5.648;2024-01-16T11:43:38;8.2;54.1
78463;SHT31;67756;51.982;5.648;2024-01-16T11:46:08;8.4;53.8
78463;SHT31;67756;51.982;5.648;2024-01-16T11:48:36;8.7;52.2
78463;SHT31;67756;51.982;5.648;2024-01-16T11:51:23;8.9;52.5
78463;SHT31;67756;51.982;5.648;2024-01-16T11:53:53;9.2;51.1
78463;SHT31;67756;51.982;5.648;2024-01-16T11:58:35;9.4;49.4
78463;SHT31;67756;51.982;5.648;2024-01-16T12:01:12;9.7;48.4
78463;SHT31;67756;51.982;5.648;2024-01-16T12:03:42;9.9;47.8
78463;SHT31;67756;51.982;5.648;2024-01-16T12:06:15;10.1;47.7
78463;SHT31;67756;51.982;5.648;2024-01-16T12:08:44;10.2;46.2
78463;SHT31;67756;51.982;5.648;2024-01-16T12:11:20;10.3;47.2
78463;SHT31;67756;51.982;5.648;2024-01-16T12:14:02;10.4;47.1
78463;SHT31;67756;51.982;5.648;2024-01-16T12:16:31;10.6;45.8
78463;SHT31;67756;51.982;5.648;2024-01-16T12:19:05;10.7;46.2
78463;SHT31;67756;51.982;5.648;2024-01-16T12:21:35;10.8;46.0
78463;SHT31;67756;51.982;5.648;2024-01-16T12:24:07;10.9;45.4
78463;SHT31;67756;51.982;5.648;2024-01-16T12:26:36;11.1;44.9
78463;SHT31;67756;51.982;5.648;2024-01-16T12:29:05;11.2;45.4
78463;SHT31;67756;51.982;5.648;2024-01-16T12:31:34;11.3;44.5
78463;SHT31;67756;51.982;5.648;2024-01-16T12:34:07;11.5;43.8
78463;SHT31;67756;51.982;5.648;2024-01-16T12:36:37;11.6;43.5
78463;SHT31;67756;51.982;5.648;2024-01-16T12:39:08;11.7;42.9
78463;SHT31;67756;51.982;5.648;2024-01-16T12:41:42;11.7;42.2
78463;SHT31;67756;51.982;5.648;2024-01-16T12:44:13;11.6;41.9
78463;SHT31;67756;51.982;5.648;2024-01-16T12:46:42;11.3;42.8
78463;SHT31;67756;51.982;5.648;2024-01-16T12:49:11;11.1;43.5
78463;SHT31;67756;51.982;5.648;2024-01-16T12:51:40;10.9;44.0
78463;SHT31;67756;51.982;5.648;2024-01-16T12:54:13;10.7;43.4
78463;SHT31;67756;51.982;5.648;2024-01-16T12:56:42;10.5;45.1
78463;SHT31;67756;51.982;5.648;2024-01-16T12:59:12;10.5;45.3
78463;SHT31;67756;51.982;5.648;2024-01-16T13:01:43;10.4;45.6
78463;SHT31;67756;51.982;5.648;2024-01-16T13:04:15;10.4;45.4
78463;SHT31;67756;51.982;5.648;2024-01-16T13:06:44;10.4;45.2
78463;SHT31;67756;51.982;5.648;2024-01-16T13:09:14;10.4;45.1
78463;SHT31;67756;51.982;5.648;2024-01-16T13:11:49;10.4;45.3
78463;SHT31;67756;51.982;5.648;2024-01-16T13:14:19;10.4;44.9
78463;SHT31;67756;51.982;5.648;2024-01-16T13:16:49;10.3;45.4
78463;SHT31;67756;51.982;5.648;2024-01-16T13:19:19;10.3;44.4
78463;SHT31;67756;51.982;5.648;2024-01-16T13:21:48;10.3;44.2
78463;SHT31;67756;51.982;5.648;2024-01-16T13:24:17;10.1;44.1
78463;SHT31;67756;51.982;5.648;2024-01-16T13:26:49;9.9;44.2
78463;SHT31;67756;51.982;5.648;2024-01-16T13:29:18;9.6;44.8
78463;SHT31;67756;51.982;5.648;2024-01-16T13:31:47;9.3;46.1
78463;SHT31;67756;51.982;5.648;2024-01-16T13:34:21;9.1;46.8
78463;SHT31;67756;51.982;5.648;2024-01-16T13:36:51;8.9;46.8
78463;SHT31;67756;51.982;5.648;2024-01-16T13:39:20;8.7;47.8
78463;SHT31;67756;51.982;5.648;2024-01-16T13:41:51;8.5;47.9
78463;SHT31;67756;51.982;5.648;2024-01-16T13:44:19;8.4;48.8
78463;SHT31;67756;51.982;5.648;2024-01-16T13:46:48;8.2;49.6
78463;SHT31;67756;51.982;5.648;2024-01-16T13:49:17;8.1;48.7
78463;SHT31;67756;51.982;5.648;2024-01-16T13:51:48;8.1;49.0
78463;SHT31;67756;51.982;5.648;2024-01-16T13:54:16;8.0;51.1
78463;SHT31;67756;51.982;5.648;2024-01-16T13:56:45;8.0;50.0
78463;SHT31;67756;51.982;5.648;2024-01-16T13:59:13;7.9;50.3
78463;SHT31;67756;51.982;5.648;2024-01-16T14:01:42;7.9;49.1
78463;SHT31;67756;51.982;5.648;2024-01-16T14:04:11;7.8;48.7
78463;SHT31;67756;51.982;5.648;2024-01-16T14:06:40;7.7;50.1
78463;SHT31;67756;51.982;5.648;2024-01-16T14:09:08;7.5;49.5
78463;SHT31;67756;51.982;5.648;2024-01-16T14:11:37;7.4;50.0
78463;SHT31;67756;51.982;5.648;2024-01-16T14:14:05;7.2;50.2
78463;SHT31;67756;51.982;5.648;2024-01-16T14:16:34;7.1;51.0
78463;SHT31;67756;51.982;5.648;2024-01-16T14:19:02;7.0;51.4
78463;SHT31;67756;51.982;5.648;2024-01-16T14:21:31;6.9;51.1
78463;SHT31;67756;51.982;5.648;2024-01-16T14:24:00;6.9;50.3
78463;SHT31;67756;51.982;5.648;2024-01-16T14:26:29;6.8;51.4
78463;SHT31;67756;51.982;5.648;2024-01-16T14:28:58;6.7;51.7
78463;SHT31;67756;51.982;5.648;2024-01-16T14:31:26;6.7;52.4
78463;SHT31;67756;51.982;5.648;2024-01-16T14:33:55;6.6;52.3
78463;SHT31;67756;51.982;5.648;2024-01-16T14:36:23;6.5;53.7
78463;SHT31;67756;51.982;5.648;2024-01-16T14:38:52;6.5;53.4
78463;SHT31;67756;51.982;5.648;2024-01-16T14:41:23;6.5;53.0
78463;SHT31;67756;51.982;5.648;2024-01-16T14:43:53;6.5;53.9
78463;SHT31;67756;51.982;5.648;2024-01-16T14:46:21;6.5;52.6
78463;SHT31;67756;51.982;5.648;2024-01-16T14:48:50;6.4;53.2
78463;SHT31;67756;51.982;5.648;2024-01-16T14:51:19;6.4;52.9
78463;SHT31;67756;51.982;5.648;2024-01-16T14:53:47;6.4;53.9
78463;SHT31;67756;51.982;5.648;2024-01-16T14:56:16;6.4;53.3
78463;SHT31;67756;51.982;5.648;2024-01-16T14:58:46;6.4;54.4
78463;SHT31;67756;51.982;5.648;2024-01-16T15:01:15;6.3;54.1
78463;SHT31;67756;51.982;5.648;2024-01-16T15:03:45;6.3;53.9
78463;SHT31;67756;51.982;5.648;2024-01-16T15:06:15;6.4;52.7
78463;SHT31;67756;51.982;5.648;2024-01-16T15:08:44;6.3;53.4
78463;SHT31;67756;51.982;5.648;2024-01-16T15:11:14;6.3;53.5
78463;SHT31;67756;51.982;5.648;2024-01-16T15:13:43;6.2;53.8
78463;SHT31;67756;51.982;5.648;2024-01-16T15:16:15;6.2;54.0
78463;SHT31;67756;51.982;5.648;2024-01-16T15:18:44;6.2;54.3
78463;SHT31;67756;51.982;5.648;2024-01-16T15:21:13;6.2;54.3
78463;SHT31;67756;51.982;5.648;2024-01-16T15:23:42;6.2;54.3
78463;SHT31;67756;51.982;5.648;2024-01-16T15:26:10;6.2;54.3
78463;SHT31;67756;51.982;5.648;2024-01-16T15:28:46;6.1;54.4
78463;SHT31;67756;51.982;5.648;2024-01-16T15:31:14;6.0;54.1
78463;SHT31;67756;51.982;5.648;2024-01-16T15:33:44;6.0;54.0
78463;SHT31;67756;51.982;5.648;2024-01-16T15:36:12;5.8;54.7
78463;SHT31;67756;51.982;5.648;2024-01-16T15:38:41;5.7;54.6
78463;SHT31;67756;51.982;5.648;2024-01-16T15:41:10;5.6;54.8
78463;SHT31;67756;51.982;5.648;2024-01-16T15:43:39;5.4;55.5
78463;SHT31;67756;51.982;5.648;2024-01-16T15:46:07;5.3;56.2
78463;SHT31;67756;51.982;5.648;2024-01-16T15:48:36;5.2;56.5
78463;SHT31;67756;51.982;5.648;2024-01-16T15:51:05;5.1;56.2
78463;SHT31;67756;51.982;5.648;2024-01-16T15:53:34;5.1;56.8
78463;SHT31;67756;51.982;5.648;2024-01-16T15:56:04;5.0;57.0
78463;SHT31;67756;51.982;5.648;2024-01-16T15:58:34;5.0;56.7
78463;SHT31;67756;51.982;5.648;2024-01-16T16:01:02;4.9;57.3
78463;SHT31;67756;51.982;5.648;2024-01-16T16:03:31;4.9;57.2
78463;SHT31;67756;51.982;5.648;2024-01-16T16:06:01;4.9;57.0
78463;SHT31;67756;51.982;5.648;2024-01-16T16:08:31;4.9;57.0
78463;SHT31;67756;51.982;5.648;2024-01-16T16:11:00;4.8;57.3
78463;SHT31;67756;51.982;5.648;2024-01-16T16:13:28;4.8;57.0
78463;SHT31;67756;51.982;5.648;2024-01-16T16:15:57;4.8;57.0
78463;SHT31;67756;51.982;5.648;2024-01-16T16:18:26;4.7;57.6
78463;SHT31;67756;51.982;5.648;2024-01-16T16:20:54;4.7;57.9
78463;SHT31;67756;51.982;5.648;2024-01-16T16:23:23;4.7;58.3
78463;SHT31;67756;51.982;5.648;2024-01-16T16:25:52;4.7;57.7
78463;SHT31;67756;51.982;5.648;2024-01-16T16:28:20;4.7;57.2
78463;SHT31;67756;51.982;5.648;2024-01-16T16:30:49;4.7;57.6
78463;SHT31;67756;51.982;5.648;2024-01-16T16:33:17;4.6;58.0